• Join FlightAware (Why Join?)
  • Login
  • US Flag 
09:48AM EST


 

Airport Tracker/Info


-or-


 

Live Flight TrackerFlight Track Log ✈ ASQ5685 ✈ 29-Sep-2013 ✈ KATL - KIAD

Flight Track Log - Related Links

Times and Time Zones

All times are in EDT time to prevent confusion due to time zone crossing. See the ASQ5685 flight status page for this flight to view local times or setup timezone preferences in your user account.

Time Position Orientation Groundspeed Altitude Reporting Facility
EDT Latitude Longitude Course Direction KTS MPH feet Rate Location/Type
09:40AM 33.6331 -84.3556 71° East 419 482 3,000  Level Atlanta Center
09:41AM 33.6333 -84.2683 90° East 266 306 5,400 2,400 Climbing Atlanta Center
09:42AM 33.6314 -84.1686 91° East 281 323 7,800 2,220 Climbing Atlanta Center
09:43AM 33.9298 -84.0791 48° Northeast  Level Estimated
09:43AM 33.6481 -84.0861 76° East 287 330 9,900  Level Atlanta Center
09:44AM 34.0029 -83.9916 53° Northeast  Level Estimated
09:44AM 33.7044 -84.0089 49° Northeast 293 337 11,400  Level Atlanta Center
09:45AM 34.0364 -83.8740 71° East  Level FlightAware Approximate
09:45AM 33.7669 -83.9264 48° Northeast 322 371 12,600  Level Atlanta Center
09:46AM 34.0699 -83.7564 71° East  Level FlightAware Approximate
09:46AM 33.8336 -83.8386 48° Northeast 349 402 13,900  Level Atlanta Center
09:47AM 33.9025 -83.7536 46° Northeast 349 402 15,300 1,320 Climbing Atlanta Center
09:48AM 33.9669 -83.6556 52° Northeast 363 418 16,600 1,260 Climbing Atlanta Center
09:49AM 34.0333 -83.5500 53° Northeast 363 418 17,900 1,200 Climbing Atlanta Center
09:50AM 34.0975 -83.4517 52° Northeast 368 423 19,000 1,140 Climbing Atlanta Center
09:51AM 34.1575 -83.3533 54° Northeast 361 415 20,200 840 Climbing Atlanta Center
09:52AM 34.2194 -83.2475 55° Northeast 366 421 20,700 480 Climbing Atlanta Center
09:53AM 34.2897 -83.1436 51° Northeast 383 441 21,200 600 Climbing Atlanta Center
09:54AM 34.3558 -83.0347 54° Northeast 394 453 21,900 600 Climbing Atlanta Center
09:55AM 34.4217 -82.9258 54° Northeast 400 460 22,500 600 Climbing Atlanta Center
09:56AM 34.4894 -82.8139 54° Northeast 400 460 23,100 540 Climbing Atlanta Center
09:57AM 34.5572 -82.7019 54° Northeast 412 474 23,600 480 Climbing Atlanta Center
09:58AM 34.6289 -82.5922 52° Northeast 412 474 24,100 480 Climbing Atlanta Center
09:59AM 34.6964 -82.4850 53° Northeast 412 474 24,600 480 Climbing Atlanta Center
10:00AM 34.7658 -82.3700 54° Northeast 417 480 25,100 480 Climbing Atlanta Center
10:01AM 34.8331 -82.2572 54° Northeast 417 480 25,600 480 Climbing Atlanta Center
10:02AM 34.9025 -82.1444 53° Northeast 417 480 26,100 480 Climbing Atlanta Center
10:03AM 34.9656 -82.0467 52° Northeast 412 474 26,600 480 Climbing Atlanta Center
10:04AM 35.0325 -81.9333 54° Northeast 412 474 27,100 480 Climbing Atlanta Center
10:05AM 35.0953 -81.8150 57° Northeast 412 474 27,600 480 Climbing Atlanta Center
10:06AM 35.1636 -81.6861 57° Northeast 412 474 28,100 480 Climbing Atlanta Center
10:07AM 35.2239 -81.5675 58° Northeast 412 474 28,600 480 Climbing Atlanta Center
10:08AM 35.2842 -81.4536 57° Northeast 407 468 29,100 420 Climbing Atlanta Center
10:09AM 35.3442 -81.3372 58° Northeast 407 468 29,500 360 Climbing Atlanta Center
10:10AM 35.4042 -81.2206 58° Northeast 407 468 29,900 360 Climbing Atlanta Center
10:11AM 35.4642 -81.1039 58° Northeast 402 463 30,300 360 Climbing Atlanta Center
10:12AM 35.5258 -80.9869 57° Northeast 402 463 30,700 300 Climbing Atlanta Center
10:13AM 35.5856 -80.8722 57° Northeast 402 463 31,000 120 Climbing Atlanta Center
10:14AM 35.6472 -80.7547 57° Northeast 402 463 31,000  Level Atlanta Center
10:15AM 35.7067 -80.6375 58° Northeast 402 463 31,000  Level Atlanta Center
10:18AM 35.8300 -80.3956 58° Northeast 417 480 31,000  Level Washington Center
10:19AM 35.8911 -80.2736 58° Northeast 417 480 31,000  Level Washington Center
10:20AM 35.9500 -80.1542 59° Northeast 412 474 31,000  Level Washington Center
10:21AM 36.0194 -80.0322 55° Northeast 407 468 31,000  Level Washington Center
10:22AM 36.0822 -79.9125 57° Northeast 401 461 31,000  Level Washington Center
10:23AM 36.1489 -79.8003 54° Northeast 406 467 31,000  Level Washington Center
10:24AM 36.2089 -79.6928 55° Northeast 414 476 31,000  Level Washington Center
10:25AM 36.2778 -79.5650 56° Northeast 404 465 31,000  Level Washington Center
10:26AM 36.3419 -79.4547 54° Northeast 404 465 31,000  Level Washington Center
10:27AM 36.4064 -79.3367 56° Northeast 409 471 31,000  Level Washington Center
10:28AM 36.4683 -79.2208 56° Northeast 409 471 31,000 -360 Level Washington Center
10:29AM 36.5383 -79.1103 52° Northeast 409 471 30,400 -1,380 Descending Washington Center
10:30AM 36.6067 -78.9867 55° Northeast 418 481 28,300 -1,980 Descending Washington Center
10:31AM 36.6661 -78.8703 57° Northeast 431 496 26,400 -1,680 Descending Washington Center
10:32AM 36.7364 -78.7408 56° Northeast 438 504 25,000 -720 Descending Washington Center
10:33AM 36.8128 -78.6064 55° Northeast 438 504 25,000 -600 Level Washington Center
10:34AM 36.9011 -78.5008 44° Northeast 433 498 23,800 -900 Descending Washington Center
10:35AM 36.9911 -78.4028 41° Northeast 423 487 23,300 -540 Descending Washington Center
10:36AM 37.0869 -78.3153 36° Northeast 423 487 22,800 -540 Descending Washington Center
10:37AM 37.1825 -78.2406 32° Northeast 430 495 22,300 -600 Descending Washington Center
10:38AM 37.2864 -78.1631 31° Northeast 436 502 21,700 -720 Descending Washington Center
10:39AM 37.3989 -78.0728 33° Northeast 436 502 20,900 -720 Descending Washington Center
10:40AM 37.5028 -77.9897 32° Northeast 436 502 20,300 -600 Descending Washington Center
10:41AM 37.6044 -77.9092 32° Northeast 436 502 19,800 -720 Descending Washington Center
10:42AM 37.7061 -77.8283 32° Northeast 436 502 18,900 -1,440 Descending Washington Center
10:43AM 37.8056 -77.7469 33° Northeast 436 502 17,000 -1,980 Descending Washington Center
10:44AM 37.9050 -77.6708 31° Northeast 425 489 15,000 -1,980 Descending Washington Center
10:45AM 38.0003 -77.5919 33° Northeast 419 482 13,000 -1,920 Descending Washington Center
10:46AM 38.0825 -77.5306 30° Northeast 403 464 11,200 -1,560 Descending Washington Center
10:47AM 38.1650 -77.4614 33° Northeast 374 430 10,000 -600 Descending Washington Center
10:48AM 38.2367 -77.4158 27° Northeast 324 373 10,000 -180 Level Washington Center
10:49AM 38.3139 -77.4097 North 275 316 9,700 -900 Descending Washington Center
10:50AM 38.3906 -77.4433 341° North 270 311 8,300 -1,380 Descending Washington Center
10:51AM 38.4675 -77.4478 357° North 275 316 6,900 -1,320 Descending Washington Center
10:52AM 38.5447 -77.4444 North 275 316 5,800 -1,020 Descending Washington Center
10:53AM 38.6136 -77.4461 359° North 264 304 4,900 -1,080 Descending Washington Center
10:54AM 38.6739 -77.4425 North 241 277 3,700 -960 Descending Washington Center
10:55AM 38.7325 -77.4411 North 224 258 3,000 -660 Descending Washington Center
10:56AM 38.7928 -77.4428 359° North 211 243 2,400 -600 Descending Washington Center
10:57AM 38.8500 -77.4333 North 177 204 1,800 -780 Descending Potomac TRACON
10:58AM 38.9000 -77.4333 360° North 148 170 900 -900 Descending Potomac TRACON